Time;durP1;ratioP1;P1;durP2;ratioP2;P2;SDS_P1;SDS_P2;PMS_P1;PMS_P2;Temp;Humidity;BMP_temperature;BMP_pressure;BME280_temperature;BME280_humidity;BME280_pressure;Samples;Min_cycle;Max_cycle;Signal;HPM_P1;HPM_P2
2022/05/24 00:01:19;;;;;;;;;;;;;;;17.60;67.75;96855.44;5150964;27;19954;-56
2022/05/24 00:03:48;;;;;;;;;;;;;;;17.58;67.59;96857.78;5139788;27;20296;-59
2022/05/24 00:06:15;;;;;;;;;;;;;;;17.49;67.97;96858.13;5149216;27;19919;-57
2022/05/24 00:08:45;;;;;;;;;;;;;;;17.41;68.05;96864.72;5157660;27;20005;-56
2022/05/24 00:11:13;;;;;;;;;;;;;;;17.46;68.07;96866.31;5149692;27;19919;-56
2022/05/24 00:13:43;;;;;;;;;;;;;;;17.47;67.75;96856.91;5148772;27;19919;-57
2022/05/24 00:16:14;;;;;;;;;;;;;;;17.49;67.86;96858.13;5160282;27;19926;-58
2022/05/24 00:18:42;;;;;;;;;;;;;;;17.45;67.79;96860.03;5168512;27;19918;-57
2022/05/24 00:21:13;;;;;;;;;;;;;;;17.47;68.26;96867.88;5169163;27;20315;-57
2022/05/24 00:23:41;;;;;;;;;;;;;;;17.45;68.13;96865.53;5132931;27;19939;-58
2022/05/24 00:26:14;;;;;;;;;;;;;;;17.46;67.89;96871.81;5127279;27;20251;-57
2022/05/24 00:28:43;;;;;;;;;;;;;;;17.51;67.78;96857.72;5161339;27;19973;-57
2022/05/24 00:31:14;;;;;;;;;;;;;;;17.47;67.96;96852.22;5142794;27;19919;-57
2022/05/24 00:33:43;;;;;;;;;;;;;;;17.68;67.22;96851.56;5138560;27;20018;-57
2022/05/24 00:36:13;;;;;;;;;;;;;;;17.55;67.96;96853.06;5144015;27;19942;-57
2022/05/24 00:38:41;;;;;;;;;;;;;;;17.58;67.68;96846.81;5150916;27;19951;-57
2022/05/24 00:41:25;;;;;;;;;;;;;;;17.53;67.75;96855.41;5147527;27;19987;-57
2022/05/24 00:43:56;;;;;;;;;;;;;;;17.54;68.05;96862.47;5153674;27;20002;-57
2022/05/24 00:46:26;;;;;;;;;;;;;;;17.60;67.77;96855.44;5142986;27;20238;-56
2022/05/24 00:48:56;;;;;;;;;;;;;;;17.57;68.15;96853.44;5158611;27;20352;-57
2022/05/24 00:51:26;;;;;;;;;;;;;;;17.61;67.77;96853.47;5152429;27;20022;-57
2022/05/24 00:53:55;;;;;;;;;;;;;;;17.65;67.48;96857.81;5168928;27;20021;-57
2022/05/24 00:56:32;;;;;;;;;;;;;;;17.56;67.89;96854.63;5159465;27;19919;-57
2022/05/24 00:59:03;;;;;;;;;;;;;;;17.66;67.79;96847.63;5136034;27;19946;-57
2022/05/24 01:01:59;;;;;;;;;;;;;;;17.59;68.14;96859.38;5164049;27;20288;-56
2022/05/24 01:04:27;;;;;;;;;;;;;;;17.85;67.20;96860.34;5158729;27;19925;-57
2022/05/24 01:06:56;;;;;;;;;;;;;;;17.60;67.99;96855.44;5161122;27;19979;-57
2022/05/24 01:09:25;;;;;;;;;;;;;;;17.49;68.48;96855.38;5164451;27;19919;-57
2022/05/24 01:11:54;;;;;;;;;;;;;;;17.61;68.11;96862.50;5163920;27;19990;-57
2022/05/24 01:14:23;;;;;;;;;;;;;;;17.58;68.21;96854.22;5160122;27;19919;-56
2022/05/24 01:16:52;;;;;;;;;;;;;;;17.56;68.23;96862.88;5157770;27;19987;-57
2022/05/24 01:19:22;;;;;;;;;;;;;;;17.53;68.53;96861.69;5154289;27;19959;-57
2022/05/24 01:21:50;;;;;;;;;;;;;;;17.72;67.56;96863.38;5153784;27;19954;-57
2022/05/24 01:24:20;;;;;;;;;;;;;;;17.64;67.84;96866.47;5153932;27;20023;-56
2022/05/24 01:26:50;;;;;;;;;;;;;;;17.58;68.40;96857.78;5140315;27;19919;-57
2022/05/24 01:29:21;;;;;;;;;;;;;;;17.61;68.38;96857.00;5160358;27;19922;-57
2022/05/24 01:37:20;;;;;;;;;;;;;;;17.76;67.53;96860.66;5153518;27;19919;-57
2022/05/24 01:39:49;;;;;;;;;;;;;;;17.70;67.79;96857.47;5149608;27;20330;-57
2022/05/24 01:42:18;;;;;;;;;;;;;;;17.63;67.83;96860.19;5134294;27;19937;-58
2022/05/24 01:44:48;;;;;;;;;;;;;;;17.65;67.78;96862.53;5159470;27;19954;-59
2022/05/24 01:47:17;;;;;;;;;;;;;;;17.55;68.22;96858.53;5158464;27;19994;-57
2022/05/24 01:49:57;;;;;;;;;;;;;;;17.65;67.88;96859.78;5150051;27;20017;-57
2022/05/24 01:52:26;;;;;;;;;;;;;;;17.76;67.37;96853.22;5153675;27;19958;-57
2022/05/24 01:54:55;;;;;;;;;;;;;;;17.60;68.00;96866.44;5157750;27;20009;-56
2022/05/24 01:57:26;;;;;;;;;;;;;;;17.61;68.41;96865.25;5169007;27;19972;-56
2022/05/24 01:59:55;;;;;;;;;;;;;;;17.62;68.06;96866.03;5141769;27;19919;-57
2022/05/24 02:02:22;;;;;;;;;;;;;;;17.47;68.47;96863.22;5148662;27;20446;-57
2022/05/24 02:04:52;;;;;;;;;;;;;;;17.47;68.46;96868.72;5148610;27;19919;-57
2022/05/24 02:07:24;;;;;;;;;;;;;;;17.49;68.69;96873.81;5167016;27;19935;-57
2022/05/24 02:09:53;;;;;;;;;;;;;;;17.35;69.02;96870.94;5144254;27;19924;-56
2022/05/24 02:12:23;;;;;;;;;;;;;;;17.40;69.01;96873.34;5144452;27;19927;-56
2022/05/24 02:14:53;;;;;;;;;;;;;;;17.59;68.20;96881.34;5135123;27;19962;-56
2022/05/24 02:17:31;;;;;;;;;;;;;;;17.59;67.96;96886.81;5161016;27;19926;-56
2022/05/24 02:20:00;;;;;;;;;;;;;;;17.76;67.70;96886.19;5157174;27;20243;-56
2022/05/24 02:22:28;;;;;;;;;;;;;;;17.50;68.40;96895.38;5164314;27;19980;-60
2022/05/24 02:24:59;;;;;;;;;;;;;;;17.41;70.71;96908.66;5158005;27;19938;-58
2022/05/24 02:27:28;;;;;;;;;;;;;;;17.18;71.53;96894.34;5158492;27;19983;-59
2022/05/24 02:29:58;;;;;;;;;;;;;;;16.99;72.52;96898.91;5167925;27;19958;-59
2022/05/24 02:32:26;;;;;;;;;;;;;;;16.94;71.95;96892.97;5146195;27;19918;-60
2022/05/24 02:34:54;;;;;;;;;;;;;;;16.87;72.16;96901.09;5147692;27;19926;-60
2022/05/24 02:37:22;;;;;;;;;;;;;;;16.75;72.89;96894.72;5144196;27;19994;-58
2022/05/24 02:42:35;;;;;;;;;;;;;;;16.72;72.99;96879.03;5153511;27;20016;-57
2022/05/24 02:45:05;;;;;;;;;;;;;;;16.67;73.73;96887.56;5156087;27;20278;-58
2022/05/24 02:47:33;;;;;;;;;;;;;;;16.67;74.32;96868.38;5148853;27;19963;-58
2022/05/24 02:50:01;;;;;;;;;;;;;;;16.52;73.83;96869.41;5140656;27;19923;-58
2022/05/24 02:52:30;;;;;;;;;;;;;;;16.49;74.31;96872.88;5133306;27;20338;-58
2022/05/24 02:54:57;;;;;;;;;;;;;;;16.39;74.29;96879.03;5153269;27;19919;-58
2022/05/24 02:57:49;;;;;;;;;;;;;;;16.43;74.54;96871.63;5155274;27;19923;-58
2022/05/24 03:00:20;;;;;;;;;;;;;;;16.45;74.27;96874.78;5160858;27;20013;-58
2022/05/24 03:02:49;;;;;;;;;;;;;;;16.68;73.37;96878.19;5134820;27;19920;-58
2022/05/24 03:05:21;;;;;;;;;;;;;;;16.57;73.70;96871.81;5157938;27;19949;-58
2022/05/24 03:10:38;;;;;;;;;;;;;;;16.47;74.09;96877.94;5134877;27;20005;-61
2022/05/24 03:15:53;;;;;;;;;;;;;;;16.54;73.84;96882.72;5159792;27;20019;-58
2022/05/24 03:18:23;;;;;;;;;;;;;;;16.56;73.82;96880.38;5162692;27;20286;-58
2022/05/24 03:24:12;;;;;;;;;;;;;;;16.61;73.68;96889.06;5145114;27;19931;-58
2022/05/24 03:26:40;;;;;;;;;;;;;;;16.62;73.45;96879.69;5154470;27;19919;-58
2022/05/24 03:29:08;;;;;;;;;;;;;;;16.67;73.15;96884.03;5149046;27;20106;-58
2022/05/24 03:31:38;;;;;;;;;;;;;;;16.58;73.44;96878.06;5116478;27;19919;-58
2022/05/24 03:34:07;;;;;;;;;;;;;;;16.94;71.68;96873.75;5117516;27;20284;-57
2022/05/24 03:36:35;;;;;;;;;;;;;;;16.79;72.18;96872.03;5149608;27;20246;-57
2022/05/24 03:39:05;;;;;;;;;;;;;;;16.73;71.94;96864.16;5155132;27;19919;-57
2022/05/24 03:41:34;;;;;;;;;;;;;;;16.71;72.53;96873.91;5143196;27;19919;-57
2022/05/24 03:44:02;;;;;;;;;;;;;;;16.82;72.26;96861.09;5139276;27;20339;-57
2022/05/24 03:46:32;;;;;;;;;;;;;;;16.71;72.23;96879.41;5153471;27;20223;-57
2022/05/24 03:49:02;;;;;;;;;;;;;;;16.70;72.83;96873.09;5161186;27;19919;-57
2022/05/24 03:51:32;;;;;;;;;;;;;;;16.94;71.76;96865.53;5172085;27;19918;-57
2022/05/24 03:54:02;;;;;;;;;;;;;;;16.75;72.39;96866.50;5147084;27;19919;-57
2022/05/24 03:56:32;;;;;;;;;;;;;;;16.71;72.77;96869.22;5132023;27;20312;-56
2022/05/24 03:59:02;;;;;;;;;;;;;;;16.73;72.21;96874.34;5135217;27;19919;-56
2022/05/24 04:01:34;;;;;;;;;;;;;;;16.63;72.69;96875.78;5152386;27;19955;-56
2022/05/24 04:04:28;;;;;;;;;;;;;;;16.82;71.23;96872.06;5151543;27;19919;-56
2022/05/24 04:06:56;;;;;;;;;;;;;;;16.72;71.25;96862.59;5152818;27;19971;-56
2022/05/24 04:09:24;;;;;;;;;;;;;;;16.72;71.53;96878.22;5149780;27;20313;-56
2022/05/24 04:11:54;;;;;;;;;;;;;;;16.65;71.78;96878.13;5151167;27;20330;-56
2022/05/24 04:14:23;;;;;;;;;;;;;;;16.55;72.82;96887.81;5156439;27;19923;-56
2022/05/24 04:16:52;;;;;;;;;;;;;;;16.60;72.60;96892.97;5174081;27;19925;-57
2022/05/24 04:19:20;;;;;;;;;;;;;;;16.60;72.76;96894.91;5169384;27;19960;-57
2022/05/24 04:21:49;;;;;;;;;;;;;;;16.55;72.71;96896.03;5164062;27;20415;-57
2022/05/24 04:24:18;;;;;;;;;;;;;;;16.50;72.98;96901.88;5155164;27;19923;-56
2022/05/24 04:26:47;;;;;;;;;;;;;;;16.50;73.46;96904.59;5173568;27;19919;-56
2022/05/24 04:29:15;;;;;;;;;;;;;;;16.62;72.68;96904.38;5131180;27;20027;-56
2022/05/24 04:31:44;;;;;;;;;;;;;;;16.56;72.52;96897.63;5127916;28;19970;-56
2022/05/24 04:34:14;;;;;;;;;;;;;;;16.62;72.10;96906.28;5129651;27;19996;-56
2022/05/24 04:36:42;;;;;;;;;;;;;;;16.71;72.29;96912.31;5131845;28;20358;-56
2022/05/24 04:39:11;;;;;;;;;;;;;;;16.75;71.87;96916.66;5141070;27;19922;-56
2022/05/24 04:47:17;;;;;;;;;;;;;;;16.80;71.05;96923.00;5165404;27;19937;-57
2022/05/24 04:49:46;;;;;;;;;;;;;;;16.93;70.58;96924.28;5171635;27;19923;-57
2022/05/24 04:52:14;;;;;;;;;;;;;;;16.85;70.96;96936.38;5173257;27;19941;-57
2022/05/24 04:54:44;;;;;;;;;;;;;;;16.77;71.43;96941.75;5171003;27;19918;-57
2022/05/24 04:57:13;;;;;;;;;;;;;;;16.93;70.79;96960.75;5173168;27;20024;-56
2022/05/24 04:59:41;;;;;;;;;;;;;;;17.04;69.70;96966.34;5152058;27;20046;-56
2022/05/24 05:02:15;;;;;;;;;;;;;;;17.00;69.54;96962.78;5129722;27;19927;-56
2022/05/24 05:04:47;;;;;;;;;;;;;;;16.90;69.06;96960.72;5136619;27;20109;-56
2022/05/24 05:07:19;;;;;;;;;;;;;;;16.82;69.64;96964.53;5136012;27;19930;-57
2022/05/24 05:09:50;;;;;;;;;;;;;;;16.86;69.61;96954.41;5139602;27;20224;-57
2022/05/24 05:12:18;;;;;;;;;;;;;;;16.80;70.43;96950.41;5129713;27;19955;-57
2022/05/24 05:14:46;;;;;;;;;;;;;;;16.80;70.85;96956.69;5135070;27;19931;-57
2022/05/24 05:17:16;;;;;;;;;;;;;;;16.84;70.47;96967.72;5139385;27;19919;-58
2022/05/24 05:20:09;;;;;;;;;;;;;;;16.87;69.78;96964.19;5151247;27;19934;-57
2022/05/24 05:22:38;;;;;;;;;;;;;;;16.92;69.67;96959.16;5172812;27;20401;-57
2022/05/24 05:25:11;;;;;;;;;;;;;;;16.88;70.09;96965.78;5155758;27;19919;-57
2022/05/24 05:27:42;;;;;;;;;;;;;;;16.83;69.69;96960.63;5135742;27;20347;-57
2022/05/24 05:32:57;;;;;;;;;;;;;;;16.86;69.45;96957.94;5134583;27;19919;-57
2022/05/24 05:35:25;;;;;;;;;;;;;;;16.80;69.39;96956.69;5147736;27;19930;-57
2022/05/24 05:37:53;;;;;;;;;;;;;;;16.90;69.48;96956.03;5155625;27;19964;-59
2022/05/24 05:40:23;;;;;;;;;;;;;;;16.96;68.82;96959.22;5142057;27;19919;-59
2022/05/24 05:42:56;;;;;;;;;;;;;;;16.95;69.50;96960.38;5156702;27;20014;-57
2022/05/24 05:45:25;;;;;;;;;;;;;;;16.94;69.50;96961.56;5154631;27;19963;-59
2022/05/24 05:47:53;;;;;;;;;;;;;;;17.01;69.59;96950.66;5155951;27;19922;-60
2022/05/24 05:50:22;;;;;;;;;;;;;;;17.10;68.04;96953.88;5142554;27;19919;-56
2022/05/24 05:52:50;;;;;;;;;;;;;;;17.14;66.86;96953.91;5155326;27;19925;-59
2022/05/24 05:55:21;;;;;;;;;;;;;;;17.01;66.67;96954.19;5150212;27;19925;-59
2022/05/24 05:57:51;;;;;;;;;;;;;;;16.93;67.22;96957.22;5128125;27;19919;-60
2022/05/24 06:00:19;;;;;;;;;;;;;;;16.92;67.62;96963.88;5116380;27;19962;-60
2022/05/24 06:02:47;;;;;;;;;;;;;;;16.84;68.45;96962.22;5145873;27;19919;-60
2022/05/24 06:05:15;;;;;;;;;;;;;;;16.82;67.26;96964.53;5142518;27;19926;-61
2022/05/24 06:07:44;;;;;;;;;;;;;;;16.82;67.78;96981.78;5141789;27;19923;-58
2022/05/24 06:10:12;;;;;;;;;;;;;;;16.80;68.43;96988.81;5139169;27;19966;-58
2022/05/24 06:12:40;;;;;;;;;;;;;;;16.83;67.48;96999.03;5128379;27;19935;-59
2022/05/24 06:15:10;;;;;;;;;;;;;;;16.87;68.17;97017.13;5142444;27;20359;-58
2022/05/24 06:17:42;;;;;;;;;;;;;;;16.82;67.89;97025.69;5144665;27;20267;-59
2022/05/24 06:20:15;;;;;;;;;;;;;;;16.77;67.60;97028.75;5137020;27;19926;-58
2022/05/24 06:22:43;;;;;;;;;;;;;;;16.82;68.39;97039.38;5136096;27;20244;-59
2022/05/24 06:25:16;;;;;;;;;;;;;;;16.84;68.71;97039.03;5144059;27;19923;-59
2022/05/24 06:27:43;;;;;;;;;;;;;;;16.86;68.63;97034.75;5138649;27;20367;-59
2022/05/24 06:30:14;;;;;;;;;;;;;;;16.92;67.49;97022.28;5139271;27;20197;-59
2022/05/24 06:32:44;;;;;;;;;;;;;;;17.08;67.70;97021.28;5138946;27;20326;-59
2022/05/24 06:35:12;;;;;;;;;;;;;;;16.97;67.02;97007.44;5135417;27;19975;-59
2022/05/24 06:37:41;;;;;;;;;;;;;;;16.94;66.94;97005.47;5143132;27;19927;-59
2022/05/24 06:40:09;;;;;;;;;;;;;;;17.00;66.46;97003.94;5142060;27;19919;-60
2022/05/24 06:42:37;;;;;;;;;;;;;;;17.11;66.22;97004.84;5144187;27;19923;-59
2022/05/24 06:45:05;;;;;;;;;;;;;;;17.07;65.35;97015.00;5144654;27;19926;-59
2022/05/24 06:47:35;;;;;;;;;;;;;;;17.09;65.90;97018.16;5146374;27;19934;-59
2022/05/24 06:50:03;;;;;;;;;;;;;;;16.98;66.95;97020.78;5145723;27;19995;-59
2022/05/24 06:52:31;;;;;;;;;;;;;;;17.01;67.38;97024.72;5145397;27;19979;-59
2022/05/24 06:55:24;;;;;;;;;;;;;;;17.00;66.87;97025.91;5146249;27;19994;-59
2022/05/24 06:57:52;;;;;;;;;;;;;;;17.19;66.44;97033.94;5125962;27;19979;-60
2022/05/24 07:03:08;;;;;;;;;;;;;;;17.18;67.36;97037.84;5141924;27;19923;-59
2022/05/24 07:05:37;;;;;;;;;;;;;;;17.19;66.92;97039.44;5140904;27;20054;-59
2022/05/24 07:08:05;;;;;;;;;;;;;;;17.34;65.60;97034.09;5143120;27;19949;-60
2022/05/24 07:10:33;;;;;;;;;;;;;;;17.09;65.44;97034.59;5140516;27;20044;-58
2022/05/24 07:13:02;;;;;;;;;;;;;;;17.09;66.40;97045.59;5139789;27;19926;-58
2022/05/24 07:15:30;;;;;;;;;;;;;;;17.05;67.00;97060.47;5138904;27;19923;-60
2022/05/24 07:17:59;;;;;;;;;;;;;;;17.10;67.45;97066.41;5139302;27;20021;-58
2022/05/24 07:20:28;;;;;;;;;;;;;;;17.09;67.62;97073.03;5134064;27;19919;-57
2022/05/24 07:22:56;;;;;;;;;;;;;;;17.03;67.22;97075.31;5140603;27;19919;-58
2022/05/24 07:25:49;;;;;;;;;;;;;;;16.91;67.61;97069.28;5146055;27;20288;-59
2022/05/24 07:28:22;;;;;;;;;;;;;;;16.97;67.31;97059.56;5140644;27;20270;-58
2022/05/24 07:30:50;;;;;;;;;;;;;;;16.81;67.60;97059.75;5136152;27;19931;-58
2022/05/24 07:33:20;;;;;;;;;;;;;;;16.86;68.60;97067.66;5143737;27;20386;-58
2022/05/24 07:35:50;;;;;;;;;;;;;;;16.77;68.83;97072.63;5137395;27;19920;-58
2022/05/24 07:38:43;;;;;;;;;;;;;;;16.77;67.72;97075.38;5141999;27;20006;-58
2022/05/24 07:46:44;;;;;;;;;;;;;;;16.88;67.60;97072.78;5142968;27;19979;-58
2022/05/24 07:49:12;;;;;;;;;;;;;;;16.81;67.11;97064.47;5141614;27;20777;-59
2022/05/24 07:51:42;;;;;;;;;;;;;;;16.89;67.50;97058.69;5146329;27;20281;-59
2022/05/24 07:54:10;;;;;;;;;;;;;;;16.94;67.36;97065.81;5141371;27;20015;-59
2022/05/24 07:56:37;;;;;;;;;;;;;;;16.93;67.38;97073.22;5136664;27;20402;-59
2022/05/24 07:59:05;;;;;;;;;;;;;;;16.99;67.11;97070.94;5139690;27;19919;-59
2022/05/24 08:01:58;;;;;;;;;;;;;;;17.18;67.17;97068.03;5137911;27;19922;-59
2022/05/24 08:04:26;;;;;;;;;;;;;;;17.32;67.38;97070.16;5128163;27;20422;-59
2022/05/24 08:07:01;;;;;;;;;;;;;;;17.46;66.87;97069.50;5137963;27;20039;-59
2022/05/24 08:09:31;;;;;;;;;;;;;;;17.52;65.11;97068.81;5138089;27;19962;-59
2022/05/24 08:11:59;;;;;;;;;;;;;;;17.64;65.59;97081.47;5143537;27;19919;-59
2022/05/24 08:14:27;;;;;;;;;;;;;;;17.76;64.84;97069.44;5137234;27;20325;-59
2022/05/24 08:16:58;;;;;;;;;;;;;;;17.87;64.52;97075.03;5137739;27;20014;-58
2022/05/24 08:19:26;;;;;;;;;;;;;;;17.95;63.93;97062.94;5135863;27;20350;-58
2022/05/24 08:21:55;;;;;;;;;;;;;;;18.04;63.87;97039.44;5140493;27;19931;-59
2022/05/24 08:24:24;;;;;;;;;;;;;;;18.15;64.37;97072.53;5116604;27;19994;-59
2022/05/24 08:26:52;;;;;;;;;;;;;;;18.51;63.04;97061.78;5140026;27;19929;-58
2022/05/24 08:29:20;;;;;;;;;;;;;;;18.58;62.84;97070.06;5134312;27;19919;-58
2022/05/24 08:31:49;;;;;;;;;;;;;;;18.39;62.82;97076.63;5139894;27;19930;-59
2022/05/24 08:34:16;;;;;;;;;;;;;;;18.57;62.18;97071.22;5140893;27;19919;-58
2022/05/24 08:36:44;;;;;;;;;;;;;;;18.52;62.77;97079.84;5127630;27;19923;-58
2022/05/24 08:39:12;;;;;;;;;;;;;;;18.65;62.15;97083.09;5140724;27;20382;-58
2022/05/24 08:41:48;;;;;;;;;;;;;;;18.71;62.07;97074.09;5141099;27;19997;-58
2022/05/24 08:49:57;;;;;;;;;;;;;;;18.96;61.13;97059.66;5130837;27;19938;-58
2022/05/24 08:52:26;;;;;;;;;;;;;;;18.84;60.46;97058.81;5134389;27;20030;-58
2022/05/24 08:54:54;;;;;;;;;;;;;;;18.73;61.52;97046.97;5136115;27;20721;-59
2022/05/24 08:57:25;;;;;;;;;;;;;;;18.98;59.76;97052.59;5135594;27;19919;-58
2022/05/24 08:59:56;;;;;;;;;;;;;;;19.01;59.38;97059.28;5115163;28;19977;-58
2022/05/24 09:02:24;;;;;;;;;;;;;;;18.60;60.13;97062.22;5116663;28;20275;-58
2022/05/24 09:04:52;;;;;;;;;;;;;;;18.38;61.79;97075.06;5121129;27;19990;-58
2022/05/24 09:07:23;;;;;;;;;;;;;;;18.32;62.07;97082.06;5125045;27;20273;-60
2022/05/24 09:09:53;;;;;;;;;;;;;;;18.24;62.49;97092.22;5123461;27;19924;-60
2022/05/24 09:12:37;;;;;;;;;;;;;;;18.38;62.57;97088.03;5129396;27;19926;-60
2022/05/24 09:15:15;;;;;;;;;;;;;;;18.10;63.64;97113.31;5118270;27;19924;-60
2022/05/24 09:17:44;;;;;;;;;;;;;;;18.16;63.56;97123.56;5116993;27;19930;-60
2022/05/24 09:20:30;;;;;;;;;;;;;;;18.10;64.12;97125.09;5118285;27;20042;-60
2022/05/24 09:23:02;;;;;;;;;;;;;;;18.02;64.07;97132.50;5126885;27;19934;-59
2022/05/24 09:28:45;;;;;;;;;;;;;;;17.82;66.40;97191.56;5134028;27;20003;-60
2022/05/24 09:31:19;;;;;;;;;;;;;;;16.72;64.10;97219.13;5103321;27;19947;-60
2022/05/24 09:33:46;;;;;;;;;;;;;;;16.00;65.02;97199.88;5127123;27;19920;-60
2022/05/24 09:36:25;;;;;;;;;;;;;;;15.37;65.09;97200.97;5119953;27;19946;-60
2022/05/24 09:38:53;;;;;;;;;;;;;;;15.01;67.93;97191.22;5121100;27;19919;-60
2022/05/24 09:41:22;;;;;;;;;;;;;;;14.83;69.39;97187.28;5119805;27;19919;-60
2022/05/24 09:43:58;;;;;;;;;;;;;;;15.00;69.58;97177.91;5119876;27;19919;-60
2022/05/24 09:46:28;;;;;;;;;;;;;;;15.15;69.75;97186.06;5085099;27;19930;-60
2022/05/24 09:48:57;;;;;;;;;;;;;;;15.14;70.63;97192.69;5100450;27;19936;-60
2022/05/24 09:51:26;;;;;;;;;;;;;;;15.30;69.94;97200.84;5123407;27;20347;-61
2022/05/24 09:53:54;;;;;;;;;;;;;;;15.23;70.17;97211.59;5118231;27;19924;-60
2022/05/24 09:56:24;;;;;;;;;;;;;;;15.32;69.44;97214.16;5112925;27;20260;-61
2022/05/24 09:58:55;;;;;;;;;;;;;;;15.43;69.25;97223.38;5127428;27;19964;-61
2022/05/24 10:01:31;;;;;;;;;;;;;;;15.76;68.26;97222.88;5132548;27;19931;-62
2022/05/24 10:04:25;;;;;;;;;;;;;;;15.88;68.14;97220.00;5132078;27;20408;-61
2022/05/24 10:06:55;;;;;;;;;;;;;;;15.91;67.16;97219.25;5146843;27;19923;-61
2022/05/24 10:09:44;;;;;;;;;;;;;;;16.15;66.56;97226.38;5144378;27;19998;-61
2022/05/24 10:12:16;;;;;;;;;;;;;;;16.19;66.74;97232.72;5139744;27;20010;-60
2022/05/24 10:14:48;;;;;;;;;;;;;;;16.19;66.12;97227.22;5119188;27;19927;-61
2022/05/24 10:17:41;;;;;;;;;;;;;;;16.22;67.12;97233.91;5140288;27;19983;-58
2022/05/24 10:20:13;;;;;;;;;;;;;;;16.13;67.05;97236.88;5133992;27;19927;-58
2022/05/24 10:22:44;;;;;;;;;;;;;;;16.09;67.05;97247.00;5137681;27;19919;-58
2022/05/24 10:25:14;;;;;;;;;;;;;;;16.22;67.19;97244.88;5138201;27;20572;-58
2022/05/24 10:27:45;;;;;;;;;;;;;;;16.31;67.21;97252.88;5135438;27;20486;-58
2022/05/24 10:30:16;;;;;;;;;;;;;;;16.28;66.16;97243.41;5140712;27;20063;-58
2022/05/24 10:38:54;;;;;;;;;;;;;;;16.35;64.12;97253.72;5140888;27;20061;-58
2022/05/24 10:41:25;;;;;;;;;;;;;;;16.30;64.00;97251.28;5116841;27;19931;-60
2022/05/24 10:43:55;;;;;;;;;;;;;;;16.34;65.81;97247.44;5132335;27;19946;-60
2022/05/24 10:46:27;;;;;;;;;;;;;;;16.17;63.45;97247.91;5135135;27;19998;-60
2022/05/24 10:48:58;;;;;;;;;;;;;;;16.09;61.05;97252.50;5132907;27;19926;-58
2022/05/24 10:51:29;;;;;;;;;;;;;;;16.19;61.96;97251.09;5140844;27;19942;-58
2022/05/24 10:53:57;;;;;;;;;;;;;;;16.37;61.65;97246.72;5141474;27;19919;-60
2022/05/24 10:56:29;;;;;;;;;;;;;;;16.26;63.32;97251.22;5145906;27;20568;-61
2022/05/24 10:58:58;;;;;;;;;;;;;;;16.33;61.72;97254.09;5144242;27;20017;-60
2022/05/24 11:01:26;;;;;;;;;;;;;;;16.55;60.63;97257.97;5135999;27;19931;-57
2022/05/24 11:03:55;;;;;;;;;;;;;;;16.66;61.96;97258.16;5129958;27;19949;-57
2022/05/24 11:06:31;;;;;;;;;;;;;;;16.81;61.08;97262.75;5138566;27;20278;-57
2022/05/24 11:09:01;;;;;;;;;;;;;;;16.94;60.87;97260.63;5131644;27;19927;-57
2022/05/24 11:11:31;;;;;;;;;;;;;;;17.08;60.11;97258.06;5118587;27;19931;-57
2022/05/24 11:14:00;;;;;;;;;;;;;;;17.34;60.65;97267.47;5133763;27;19992;-58
2022/05/24 11:16:30;;;;;;;;;;;;;;;17.73;60.09;97271.53;5129609;27;19923;-56
2022/05/24 11:18:59;;;;;;;;;;;;;;;17.85;60.63;97273.25;5136055;27;20327;-57
2022/05/24 11:21:52;;;;;;;;;;;;;;;18.07;58.96;97274.28;5142762;27;19923;-58
2022/05/24 11:24:25;;;;;;;;;;;;;;;18.08;57.51;97281.38;5138552;27;19919;-56
2022/05/24 11:26:54;;;;;;;;;;;;;;;18.03;57.97;97278.97;5140322;27;19933;-57
2022/05/24 11:29:25;;;;;;;;;;;;;;;18.03;59.06;97279.75;5143825;27;19919;-57
2022/05/24 11:31:53;;;;;;;;;;;;;;;18.05;57.44;97279.34;5140004;27;19927;-59
2022/05/24 11:34:22;;;;;;;;;;;;;;;18.08;58.46;97280.59;5137494;27;20438;-57
2022/05/24 11:37:00;;;;;;;;;;;;;;;17.95;58.90;97280.84;5136924;27;19985;-57
2022/05/24 11:39:31;;;;;;;;;;;;;;;18.10;58.23;97270.78;5131491;27;19919;-58
2022/05/24 11:42:23;;;;;;;;;;;;;;;18.38;57.43;97273.06;5142504;27;19950;-57
2022/05/24 11:44:57;;;;;;;;;;;;;;;18.48;54.61;97269.63;5128129;27;19938;-57
2022/05/24 11:47:43;;;;;;;;;;;;;;;18.53;54.72;97287.72;5124055;27;20283;-57
2022/05/24 11:50:25;;;;;;;;;;;;;;;18.43;52.63;97277.41;5132365;27;19938;-57
2022/05/24 11:53:03;;;;;;;;;;;;;;;18.22;53.07;97276.03;5132431;27;19928;-58
2022/05/24 11:55:44;;;;;;;;;;;;;;;18.23;52.98;97265.81;5135185;27;20059;-59
2022/05/24 11:58:42;;;;;;;;;;;;;;;18.15;52.75;97269.66;5139410;27;20061;-57
2022/05/24 12:01:14;;;;;;;;;;;;;;;18.15;53.10;97270.44;5138732;27;19919;-56
2022/05/24 12:09:54;;;;;;;;;;;;;;;18.39;51.70;97260.88;5147230;27;19923;-57
2022/05/24 12:12:29;;;;;;;;;;;;;;;18.60;51.50;97263.03;5144305;27;19919;-57
2022/05/24 12:15:05;;;;;;;;;;;;;;;18.45;50.68;97264.06;5140676;27;20003;-59
2022/05/24 12:17:33;;;;;;;;;;;;;;;18.27;51.93;97267.44;5137921;27;19938;-59
2022/05/24 12:20:04;;;;;;;;;;;;;;;18.21;51.65;97262.66;5136237;27;20267;-59
2022/05/24 12:22:41;;;;;;;;;;;;;;;18.44;51.80;97274.28;5120518;27;19930;-59
2022/05/24 12:25:10;;;;;;;;;;;;;;;18.60;50.78;97274.03;5139731;27;20000;-59
2022/05/24 12:27:55;;;;;;;;;;;;;;;18.79;50.19;97265.56;5145313;27;19934;-57
2022/05/24 12:30:27;;;;;;;;;;;;;;;18.87;50.66;97271.16;5137880;27;20011;-58
2022/05/24 12:32:56;;;;;;;;;;;;;;;19.06;50.04;97263.41;5137379;27;19919;-59
2022/05/24 12:35:24;;;;;;;;;;;;;;;19.08;49.24;97269.34;5135162;27;19923;-57
2022/05/24 12:37:53;;;;;;;;;;;;;;;19.17;49.22;97263.50;5148281;27;20339;-59
2022/05/24 12:40:23;;;;;;;;;;;;;;;19.09;48.57;97261.88;5130471;27;19984;-57
2022/05/24 12:42:57;;;;;;;;;;;;;;;19.20;49.29;97268.25;5144212;27;19930;-57
2022/05/24 12:45:27;;;;;;;;;;;;;;;19.33;47.75;97260.44;5148108;27;20095;-57
2022/05/24 12:47:57;;;;;;;;;;;;;;;19.47;46.00;97257.00;5143302;27;19945;-58
2022/05/24 12:50:31;;;;;;;;;;;;;;;19.50;46.20;97258.97;5155228;27;19923;-56
2022/05/24 12:53:00;;;;;;;;;;;;;;;19.56;46.66;97262.94;5155603;27;19935;-57
2022/05/24 12:58:24;;;;;;;;;;;;;;;19.55;45.70;97267.66;5141186;27;19919;-57
2022/05/24 13:00:52;;;;;;;;;;;;;;;19.29;45.23;97262.41;5149615;27;19942;-57
2022/05/24 13:03:23;;;;;;;;;;;;;;;19.18;46.58;97270.59;5136605;27;19931;-57
2022/05/24 13:06:06;;;;;;;;;;;;;;;19.21;44.81;97269.81;5138637;27;19929;-57
2022/05/24 13:08:34;;;;;;;;;;;;;;;19.16;44.64;97278.44;5148698;27;19919;-59
2022/05/24 13:11:06;;;;;;;;;;;;;;;19.28;44.95;97291.09;5150971;27;19925;-61
2022/05/24 13:13:33;;;;;;;;;;;;;;;19.30;44.87;97288.78;5144956;27;19923;-59
2022/05/24 13:16:01;;;;;;;;;;;;;;;19.34;44.79;97284.09;5136873;27;19919;-59
2022/05/24 13:18:33;;;;;;;;;;;;;;;19.35;45.25;97291.94;5150080;27;19923;-58
2022/05/24 13:21:02;;;;;;;;;;;;;;;19.33;45.76;97283.28;5157290;27;19971;-59
2022/05/24 13:23:33;;;;;;;;;;;;;;;19.23;45.10;97277.69;5147672;27;20008;-59
2022/05/24 13:26:15;;;;;;;;;;;;;;;19.42;45.57;97284.91;5136164;27;20331;-59
2022/05/24 13:28:44;;;;;;;;;;;;;;;19.58;46.24;97274.38;5129265;27;19930;-56
2022/05/24 13:34:02;;;;;;;;;;;;;;;19.57;46.01;97278.31;5144952;27;19927;-58
2022/05/24 13:36:32;;;;;;;;;;;;;;;19.83;46.71;97280.03;5136617;27;19965;-59
2022/05/24 13:39:11;;;;;;;;;;;;;;;20.06;45.97;97280.50;5146301;27;20008;-59
2022/05/24 13:41:41;;;;;;;;;;;;;;;20.13;44.42;97285.25;5148284;27;19931;-58
2022/05/24 13:44:28;;;;;;;;;;;;;;;20.15;45.17;97288.41;5150041;27;19931;-56
2022/05/24 13:46:58;;;;;;;;;;;;;;;20.17;44.83;97277.00;5146346;27;19942;-57
2022/05/24 13:49:27;;;;;;;;;;;;;;;20.17;45.11;97286.06;5153332;27;20375;-56
2022/05/24 13:51:55;;;;;;;;;;;;;;;19.89;44.39;97272.97;5155916;27;19923;-59
2022/05/24 13:54:31;;;;;;;;;;;;;;;19.69;44.39;97289.00;5142843;27;20021;-60
2022/05/24 13:57:01;;;;;;;;;;;;;;;19.48;45.32;97291.63;5146249;27;20377;-57
2022/05/24 13:59:29;;;;;;;;;;;;;;;19.37;47.15;97295.09;5144985;27;19923;-57
2022/05/24 14:01:58;;;;;;;;;;;;;;;19.18;46.29;97295.38;5137476;27;19927;-56
2022/05/24 14:04:27;;;;;;;;;;;;;;;19.02;47.20;97306.66;5145535;27;19958;-57
2022/05/24 14:06:56;;;;;;;;;;;;;;;18.78;46.97;97307.25;5143826;27;20018;-57
2022/05/24 14:09:24;;;;;;;;;;;;;;;18.79;47.54;97315.09;5137596;27;20281;-57